Time;durP1;ratioP1;P1;durP2;ratioP2;P2;SDS_P1;SDS_P2;PMS_P1;PMS_P2;Temp;Humidity;BMP_temperature;BMP_pressure;BME280_temperature;BME280_humidity;BME280_pressure;Samples;Min_cycle;Max_cycle;Signal;HPM_P1;HPM_P2
2022/10/28 00:02:22;;;;;;;10.40;7.40;;;;;;;;;;6228567;23;20377;-87
2022/10/28 00:04:48;;;;;;;26.90;10.70;;;14.10;99.90;;;;;;6228288;23;20377;-89
2022/10/28 00:07:14;;;;;;;16.23;9.40;;;;;;;;;;6201849;23;20396;-84
2022/10/28 00:09:40;;;;;;;10.60;6.70;;;;;;;;;;6233472;23;20181;-89
2022/10/28 00:12:06;;;;;;;13.77;6.70;;;;;;;;;;6231227;23;21155;-86
2022/10/28 00:14:32;;;;;;;15.63;7.20;;;;;;;;;;6230864;23;20376;-88
2022/10/28 00:16:58;;;;;;;13.50;7.57;;;;;;;;;;6225960;23;20428;-85
2022/10/28 00:19:24;;;;;;;13.00;6.70;;;;;;;;;;6231261;23;20376;-88
2022/10/28 00:21:50;;;;;;;18.77;8.37;;;;;;;;;;6229188;23;20373;-86
2022/10/28 00:24:16;;;;;;;12.47;6.73;;;;;;;;;;6203574;23;20361;-86
2022/10/28 00:26:42;;;;;;;16.30;6.20;;;13.70;99.90;;;;;;6231563;23;20380;-86
2022/10/28 00:29:16;;;;;;;16.53;8.20;;;13.60;99.90;;;;;;6206738;23;21043;-86
2022/10/28 00:31:43;;;;;;;15.43;6.80;;;13.60;99.90;;;;;;6204049;23;20387;-89
2022/10/28 00:34:15;;;;;;;14.77;7.53;;;13.50;99.90;;;;;;6204654;23;20428;-86
2022/10/28 00:36:43;;;;;;;11.00;6.33;;;13.30;99.90;;;;;;6204722;23;20450;-85
2022/10/28 00:39:18;;;;;;;13.50;6.53;;;13.10;99.90;;;;;;6176862;23;20460;-87
2022/10/28 00:41:50;;;;;;;10.13;6.20;;;13.20;99.90;;;;;;6201508;23;20430;-85
2022/10/28 00:44:53;;;;;;;14.20;7.97;;;13.10;99.90;;;;;;6206592;23;20364;-88
2022/10/28 00:47:43;;;;;;;15.90;6.80;;;13.00;99.90;;;;;;6195149;23;20380;-85
2022/10/28 00:50:39;;;;;;;14.90;6.73;;;13.00;99.90;;;;;;6218423;23;20472;-85
2022/10/28 00:53:09;;;;;;;11.23;6.00;;;13.00;99.90;;;;;;6167673;23;20446;-87
2022/10/28 00:55:36;;;;;;;18.80;6.63;;;13.00;99.90;;;;;;6206605;23;20381;-84
2022/10/28 00:58:04;;;;;;;16.90;6.50;;;13.00;99.90;;;;;;6206243;23;21222;-83
2022/10/28 01:00:30;;;;;;;15.00;5.90;;;;;;;;;;6205121;23;20400;-87
2022/10/28 01:02:56;;;;;;;11.97;7.10;;;;;;;;;;6178469;23;20376;-89
2022/10/28 01:05:27;;;;;;;12.40;6.10;;;12.70;99.90;;;;;;6179623;23;20799;-88
2022/10/28 01:07:56;;;;;;;11.63;4.40;;;12.70;99.90;;;;;;6203466;23;20388;-86
2022/10/28 01:10:48;;;;;;;15.90;7.17;;;13.10;99.90;;;;;;6202366;23;20414;-87
2022/10/28 01:13:19;;;;;;;10.17;4.57;;;13.50;99.90;;;;;;6202875;23;20866;-86
2022/10/28 01:16:02;;;;;;;20.37;4.70;;;13.40;99.90;;;;;;6179122;23;20391;-87
2022/10/28 01:18:43;;;;;;;11.53;3.87;;;13.80;99.90;;;;;;6201585;23;20383;-84
2022/10/28 01:21:40;;;;;;;13.17;5.53;;;13.70;99.90;;;;;;6182276;23;20384;-84
2022/10/28 01:24:23;;;;;;;10.20;6.43;;;13.60;99.90;;;;;;6217118;23;20407;-87
2022/10/28 01:27:14;;;;;;;10.77;5.33;;;13.40;99.90;;;;;;6209605;23;20376;-83
2022/10/28 01:30:03;;;;;;;15.37;6.40;;;13.30;99.90;;;;;;6181721;23;20404;-89
2022/10/28 01:33:10;;;;;;;14.00;6.90;;;13.10;99.90;;;;;;6205618;23;20890;-87
2022/10/28 01:35:59;;;;;;;21.60;7.30;;;13.10;99.90;;;;;;6186433;23;20395;-87
2022/10/28 01:38:31;;;;;;;13.87;6.50;;;13.00;99.90;;;;;;6202458;23;20387;-85
2022/10/28 01:40:57;;;;;;;12.60;8.27;;;;;;;;;;6180518;23;20435;-86
2022/10/28 01:43:28;;;;;;;20.10;8.77;;;13.10;99.90;;;;;;6179907;23;20722;-88
2022/10/28 01:46:07;;;;;;;22.60;8.30;;;13.00;99.90;;;;;;6206560;23;20368;-85
2022/10/28 01:48:33;;;;;;;29.03;9.73;;;;;;;;;;6204318;23;20391;-85
2022/10/28 01:51:24;;;;;;;22.77;7.27;;;12.60;99.90;;;;;;6180628;23;20780;-84
2022/10/28 01:53:54;;;;;;;11.80;6.03;;;13.00;99.90;;;;;;6174969;23;20376;-85
2022/10/28 01:56:25;;;;;;;11.93;6.87;;;13.00;99.90;;;;;;6202329;23;20519;-88
2022/10/28 01:58:55;;;;;;;12.60;6.80;;;13.10;99.90;;;;;;6200130;23;20356;-87
2022/10/28 02:01:22;;;;;;;12.80;6.83;;;13.10;99.90;;;;;;6198832;23;20515;-88
2022/10/28 02:03:48;;;;;;;17.07;8.30;;;;;;;;;;6197185;23;20380;-84
2022/10/28 02:06:21;;;;;;;22.07;7.17;;;13.00;99.90;;;;;;6199195;23;20415;-86
2022/10/28 02:09:00;;;;;;;14.83;6.67;;;13.00;99.90;;;;;;6199552;23;20392;-86
2022/10/28 02:11:36;;;;;;;19.30;7.13;;;13.10;99.90;;;;;;6174637;23;20420;-86
2022/10/28 02:14:34;;;;;;;14.83;7.03;;;13.10;99.90;;;;;;6205446;23;20387;-86
2022/10/28 02:17:07;;;;;;;14.40;7.10;;;13.20;99.90;;;;;;6176318;23;20424;-85
2022/10/28 02:19:49;;;;;;;14.97;6.77;;;13.30;99.90;;;;;;6203086;23;20904;-86
2022/10/28 02:22:24;;;;;;;10.47;5.77;;;13.20;99.90;;;;;;6219304;23;20360;-86
2022/10/28 02:25:28;;;;;;;15.07;6.60;;;13.30;99.90;;;;;;6200761;23;20363;-84
2022/10/28 02:28:07;;;;;;;14.40;7.40;;;13.30;99.90;;;;;;6205181;23;20423;-84
2022/10/28 02:30:44;;;;;;;9.77;5.73;;;13.30;99.90;;;;;;6204534;23;20718;-87
2022/10/28 02:33:13;;;;;;;16.43;6.97;;;13.20;99.90;;;;;;6178515;23;20384;-85
2022/10/28 02:35:45;;;;;;;17.33;8.17;;;13.00;99.90;;;;;;6204913;23;20827;-86
2022/10/28 02:38:16;;;;;;;16.10;7.70;;;13.00;99.90;;;;;;6202831;23;20475;-87
2022/10/28 02:40:46;;;;;;;19.20;6.60;;;13.20;99.90;;;;;;6198849;23;20404;-87
2022/10/28 02:43:14;;;;;;;13.10;6.77;;;13.00;99.90;;;;;;6201744;23;20357;-85
2022/10/28 02:45:42;;;;;;;14.40;7.03;;;13.00;99.90;;;;;;6199036;23;20392;-88
2022/10/28 02:48:15;;;;;;;12.20;6.93;;;12.90;99.90;;;;;;6203536;23;20471;-82
2022/10/28 02:50:45;;;;;;;19.97;7.70;;;12.90;99.90;;;;;;6219962;23;20412;-86
2022/10/28 02:53:18;;;;;;;8.00;5.73;;;13.10;99.90;;;;;;6208531;23;20365;-83
2022/10/28 02:55:47;;;;;;;12.30;6.43;;;13.20;99.90;;;;;;6205140;23;20451;-85
2022/10/28 02:58:14;;;;;;;16.23;6.23;;;;;;;;;;6203809;23;20432;-84
2022/10/28 03:00:43;;;;;;;16.27;8.53;;;13.30;99.90;;;;;;6181744;23;20400;-88
2022/10/28 03:03:09;;;;;;;7.50;5.83;;;;;;;;;;6217806;23;20443;-84
2022/10/28 03:05:35;;;;;;;13.87;6.60;;;;;;;;;;6195572;23;20372;-86
2022/10/28 03:08:01;;;;;;;21.37;7.30;;;;;;;;;;6181056;23;20725;-87
2022/10/28 03:10:27;;;;;;;14.53;7.23;;;;;;;;;;6181770;23;20762;-84
2022/10/28 03:12:54;;;;;;;9.93;6.60;;;13.40;99.90;;;;;;6206761;23;20360;-86
2022/10/28 03:15:20;;;;;;;16.30;6.70;;;;;;;;;;6207507;23;20396;-85
2022/10/28 03:17:46;;;;;;;13.23;6.50;;;;;;;;;;6179080;23;21201;-86
2022/10/28 03:20:12;;;;;;;15.10;5.97;;;;;;;;;;6178542;23;20396;-84
2022/10/28 03:22:38;;;;;;;14.70;5.97;;;;;;;;;;6178318;23;20376;-88
2022/10/28 03:25:04;;;;;;;17.80;6.47;;;13.60;99.90;;;;;;6205010;23;20379;-85
2022/10/28 03:27:30;;;;;;;17.10;7.00;;;;;;;;;;6207784;23;20983;-84
2022/10/28 03:29:55;;;;;;;13.17;5.73;;;;;;;;;;6230083;23;20434;-87
2022/10/28 03:32:21;;;;;;;15.10;6.10;;;;;;;;;;6233499;23;20445;-85
2022/10/28 03:34:47;;;;;;;8.83;6.40;;;;;;;;;;6231949;23;20383;-85
2022/10/28 03:37:14;;;;;;;14.93;6.90;;;;;;;;;;6232620;23;20524;-85
2022/10/28 03:39:39;;;;;;;12.67;6.10;;;;;;;;;;6233741;23;20474;-87
2022/10/28 03:42:05;;;;;;;12.47;6.00;;;;;;;;;;6232916;23;20402;-85
2022/10/28 03:44:31;;;;;;;14.20;6.27;;;;;;;;;;6234947;23;21106;-85
2022/10/28 03:46:57;;;;;;;23.17;7.07;;;;;;;;;;6240608;23;20387;-85
2022/10/28 03:49:23;;;;;;;14.40;7.90;;;;;;;;;;6231652;23;20367;-86
2022/10/28 03:51:49;;;;;;;13.47;6.70;;;;;;;;;;6237206;23;20383;-86
2022/10/28 03:54:15;;;;;;;11.53;6.90;;;;;;;;;;6238342;23;20380;-83
2022/10/28 03:56:41;;;;;;;9.50;6.33;;;;;;;;;;6233765;23;20414;-84
2022/10/28 03:59:10;;;;;;;13.40;5.70;;;13.30;99.90;;;;;;6236597;23;20368;-83
2022/10/28 04:01:36;;;;;;;22.50;6.80;;;;;;;;;;6209348;23;20803;-87
2022/10/28 04:04:02;;;;;;;17.73;7.40;;;;;;;;;;6231399;23;20415;-85
2022/10/28 04:06:28;;;;;;;11.53;6.73;;;;;;;;;;6234350;23;20379;-87
2022/10/28 04:08:54;;;;;;;19.87;7.67;;;;;;;;;;6234196;23;20376;-85
2022/10/28 04:11:21;;;;;;;19.47;6.63;;;13.50;99.90;;;;;;6230269;23;20502;-87
2022/10/28 04:13:47;;;;;;;12.53;7.77;;;;;;;;;;6207153;23;20379;-84
2022/10/28 04:16:13;;;;;;;15.80;7.97;;;;;;;;;;6246434;22;20426;-84
2022/10/28 04:18:39;;;;;;;16.57;7.10;;;;;;;;;;6248404;22;20375;-83
2022/10/28 04:21:05;;;;;;;13.10;6.10;;;;;;;;;;6239281;23;21257;-85
2022/10/28 04:23:31;;;;;;;16.30;6.57;;;;;;;;;;6237988;23;20371;-84
2022/10/28 04:25:57;;;;;;;17.73;6.90;;;;;;;;;;6245539;23;20453;-88
2022/10/28 04:28:23;;;;;;;10.10;6.47;;;;;;;;;;6229869;23;20410;-84
2022/10/28 04:30:49;;;;;;;11.57;7.90;;;;;;;;;;6225916;23;20506;-85
2022/10/28 04:33:15;;;;;;;13.13;6.73;;;;;;;;;;6223598;23;20687;-84
2022/10/28 04:35:41;;;;;;;15.43;8.10;;;13.40;99.90;;;;;;6222244;23;21060;-86
2022/10/28 04:38:08;;;;;;;14.77;6.77;;;13.30;99.90;;;;;;6198558;23;20453;-87
2022/10/28 04:40:34;;;;;;;8.10;5.90;;;;;;;;;;6202627;23;20494;-85
2022/10/28 04:43:00;;;;;;;12.30;6.73;;;;;;;;;;6228269;23;20611;-84
2022/10/28 04:45:26;;;;;;;11.40;6.27;;;;;;;;;;6231557;23;20391;-84
2022/10/28 04:47:59;;;;;;;16.57;7.20;;;13.30;99.90;;;;;;6232995;23;20466;-80
2022/10/28 04:50:25;;;;;;;12.90;6.50;;;;;;;;;;6235574;23;20418;-84
2022/10/28 04:52:51;;;;;;;16.60;6.93;;;;;;;;;;6240224;23;20959;-86
2022/10/28 04:55:17;;;;;;;13.87;6.90;;;;;;;;;;6228259;23;20388;-86
2022/10/28 04:57:43;;;;;;;17.53;6.27;;;;;;;;;;6226177;23;21137;-82
2022/10/28 05:00:09;;;;;;;12.43;6.80;;;;;;;;;;6225981;23;20372;-87
2022/10/28 05:02:35;;;;;;;17.73;5.93;;;13.30;99.90;;;;;;6231961;23;20152;-85
2022/10/28 05:05:03;;;;;;;13.93;6.20;;;13.50;99.90;;;;;;6203817;23;20375;-84
2022/10/28 05:07:29;;;;;;;19.17;6.20;;;13.60;99.90;;;;;;6206452;23;20387;-83
2022/10/28 05:09:55;;;;;;;12.53;6.50;;;;;;;;;;6208042;23;20414;-86
2022/10/28 05:12:20;;;;;;;16.80;6.27;;;13.40;99.90;;;;;;6234632;23;20379;-85
2022/10/28 05:14:46;;;;;;;16.93;5.97;;;13.30;99.90;;;;;;6238213;23;20366;-83
2022/10/28 05:17:12;;;;;;;17.90;7.27;;;13.40;99.90;;;;;;6210881;23;20176;-82
2022/10/28 05:19:37;;;;;;;14.60;6.03;;;13.20;99.90;;;;;;6239128;23;20164;-82
2022/10/28 05:22:03;;;;;;;8.73;5.23;;;12.70;99.90;;;;;;6239431;22;20140;-87
2022/10/28 05:24:28;;;;;;;10.60;6.50;;;;;;;;;;6306585;22;20175;-88
2022/10/28 05:26:54;;;;;;;12.60;6.53;;;;;;;;;;6303678;22;20147;-87
2022/10/28 05:29:20;;;;;;;8.23;6.00;;;;;;;;;;6276713;22;20424;-87
2022/10/28 05:31:46;;;;;;;17.00;6.47;;;;;;;;;;6279045;22;20367;-86
2022/10/28 05:34:12;;;;;;;11.13;5.77;;;12.60;99.90;;;;;;6281249;22;20430;-87
2022/10/28 05:36:37;;;;;;;8.60;6.10;;;13.50;99.90;;;;;;6276129;22;20913;-87
2022/10/28 05:39:03;;;;;;;17.07;6.77;;;12.50;99.90;;;;;;6273835;22;20274;-87
2022/10/28 05:41:29;;;;;;;9.98;6.00;;;12.50;99.90;;;;;;6276133;22;20538;-87
2022/10/28 05:43:55;;;;;;;17.90;7.00;;;12.60;99.90;;;;;;6274039;22;20152;-86
2022/10/28 05:46:21;;;;;;;13.27;7.20;;;12.60;99.90;;;;;;6273257;22;20379;-86
2022/10/28 05:48:47;;;;;;;13.50;6.40;;;12.60;99.90;;;;;;6275147;22;20167;-86
2022/10/28 05:51:13;;;;;;;14.30;6.17;;;12.50;99.90;;;;;;6273435;22;20645;-87
2022/10/28 05:53:40;;;;;;;23.40;7.20;;;12.50;99.90;;;;;;6273206;22;20387;-87
2022/10/28 05:56:07;;;;;;;10.98;6.60;;;12.30;99.90;;;;;;6275108;22;20142;-88
2022/10/28 05:58:33;;;;;;;13.18;6.80;;;12.30;99.90;;;;;;6276501;22;20160;-86
2022/10/28 06:00:58;;;;;;;12.63;6.50;;;12.20;99.90;;;;;;6275182;22;20209;-87
2022/10/28 06:03:24;;;;;;;12.80;6.43;;;;;;;;;;6274541;22;20158;-88
2022/10/28 06:05:50;;;;;;;21.00;6.53;;;12.30;99.90;;;;;;6274197;22;20167;-87
2022/10/28 06:08:15;;;;;;;13.23;7.27;;;12.30;99.90;;;;;;6273451;22;20480;-87
2022/10/28 06:10:49;;;;;;;12.60;6.50;;;12.30;99.90;;;;;;6273311;22;20162;-86
2022/10/28 06:13:14;;;;;;;14.70;7.25;;;12.30;99.90;;;;;;6273502;22;20649;-87
2022/10/28 06:15:40;;;;;;;23.37;7.13;;;12.30;99.90;;;;;;6274752;22;20179;-86
2022/10/28 06:18:06;;;;;;;13.37;6.63;;;;;;;;;;6272360;22;20278;-87
2022/10/28 06:20:31;;;;;;;10.10;6.20;;;12.30;99.90;;;;;;6274494;22;20599;-87
2022/10/28 06:22:57;;;;;;;12.60;6.10;;;12.30;99.90;;;;;;6272984;22;20408;-87
2022/10/28 06:25:23;;;;;;;13.97;6.20;;;12.40;99.90;;;;;;6273460;22;20162;-85
2022/10/28 06:27:57;;;;;;;12.88;6.40;;;12.40;99.90;;;;;;6274235;22;20761;-86
2022/10/28 06:30:24;;;;;;;8.43;5.20;;;12.30;99.90;;;;;;6275298;22;20151;-86
2022/10/28 06:32:49;;;;;;;13.60;6.03;;;12.30;99.90;;;;;;6276866;22;20166;-87
2022/10/28 06:35:15;;;;;;;16.30;6.30;;;;;;;;;;6275899;22;20160;-87
2022/10/28 06:37:41;;;;;;;8.98;5.38;;;12.30;99.90;;;;;;6275435;22;20317;-87
2022/10/28 06:40:08;;;;;;;8.97;5.60;;;12.40;99.90;;;;;;6277282;22;20603;-88
2022/10/28 06:42:34;;;;;;;11.05;5.40;;;12.50;99.90;;;;;;6278016;22;20154;-87
2022/10/28 06:44:59;;;;;;;9.17;4.93;;;12.60;99.90;;;;;;6277516;22;20573;-87
2022/10/28 06:47:25;;;;;;;7.60;5.30;;;;;;;;;;6275182;22;20168;-86
2022/10/28 06:49:51;;;;;;;7.83;5.50;;;12.80;99.90;;;;;;6277169;22;20148;-87
2022/10/28 06:52:16;;;;;;;13.13;7.00;;;12.90;99.90;;;;;;6275919;22;20455;-86
2022/10/28 06:54:42;;;;;;;11.60;5.10;;;13.00;99.90;;;;;;6275167;22;20190;-87
2022/10/28 06:57:09;;;;;;;16.40;7.53;;;13.10;99.90;;;;;;6276612;22;20183;-86
2022/10/28 06:59:34;;;;;;;12.17;5.07;;;13.20;99.90;;;;;;6275667;22;20430;-86
2022/10/28 07:02:00;;;;;;;15.77;6.83;;;13.20;99.90;;;;;;6277454;22;20403;-86
2022/10/28 07:04:25;;;;;;;18.50;5.70;;;13.50;99.90;;;;;;6276835;22;20151;-85
2022/10/28 07:06:54;;;;;;;14.13;7.20;;;14.20;99.90;;;;;;6277058;22;20198;-86
2022/10/28 07:09:20;;;;;;;7.83;4.73;;;14.20;99.90;;;;;;6278144;22;20152;-84
2022/10/28 07:11:47;;;;;;;11.87;5.97;;;14.50;99.90;;;;;;6279050;22;20373;-83
2022/10/28 07:14:13;;;;;;;10.50;6.10;;;14.50;99.90;;;;;;6277205;22;20156;-86
2022/10/28 07:16:38;;;;;;;8.20;4.63;;;14.60;99.90;;;;;;6277678;22;20509;-85
2022/10/28 07:19:04;;;;;;;8.60;5.07;;;;;;;;;;6279121;22;20163;-86
2022/10/28 07:21:30;;;;;;;16.00;7.97;;;;;;;;;;6276933;22;20559;-84
2022/10/28 07:23:56;;;;;;;14.47;4.80;;;15.20;99.90;;;;;;6278503;22;20389;-85
2022/10/28 07:26:22;;;;;;;14.67;4.97;;;15.60;99.90;;;;;;6278952;22;20374;-86
2022/10/28 07:28:48;;;;;;;9.20;4.50;;;16.40;99.90;;;;;;6278902;22;20611;-86
2022/10/28 07:31:14;;;;;;;10.57;5.10;;;;;;;;;;6276276;22;20417;-87
2022/10/28 07:33:40;;;;;;;10.47;4.50;;;16.90;99.90;;;;;;6278008;22;20636;-85
2022/10/28 07:36:06;;;;;;;10.90;5.00;;;17.40;99.90;;;;;;6275453;22;20402;-86
2022/10/28 07:38:31;;;;;;;18.90;5.17;;;17.90;99.90;;;;;;6275634;22;20176;-86
2022/10/28 07:40:57;;;;;;;10.60;4.90;;;18.50;99.90;;;;;;6274508;22;20858;-86
2022/10/28 07:43:23;;;;;;;11.40;5.13;;;19.10;99.90;;;;;;6275394;22;20227;-86
2022/10/28 07:45:55;;;;;;;7.07;4.37;;;19.70;99.90;;;;;;6275611;22;20170;-86
2022/10/28 07:48:20;;;;;;;14.50;5.13;;;19.40;99.90;;;;;;6272262;22;20494;-86
2022/10/28 07:50:46;;;;;;;9.37;5.40;;;;;;;;;;6276208;22;20409;-85
2022/10/28 07:53:12;;;;;;;12.33;4.90;;;18.50;99.90;;;;;;6273362;22;20155;-85
2022/10/28 07:55:37;;;;;;;11.93;5.10;;;18.20;99.90;;;;;;6276629;22;20856;-86
2022/10/28 07:58:03;;;;;;;11.40;4.67;;;17.90;99.90;;;;;;6275694;22;20219;-85
2022/10/28 08:00:29;;;;;;;9.60;5.73;;;;;;;;;;6276049;22;20480;-85
2022/10/28 08:02:54;;;;;;;20.70;5.90;;;;;;;;;;6276350;22;20640;-86
2022/10/28 08:05:20;;;;;;;10.23;5.07;;;;;;;;;;6275948;22;20378;-86
2022/10/28 08:07:46;;;;;;;14.50;5.73;;;17.20;99.90;;;;;;6275402;22;20685;-87
2022/10/28 08:10:12;;;;;;;6.93;4.50;;;;;;;;;;6274407;22;20709;-86
2022/10/28 08:12:38;;;;;;;10.07;5.37;;;17.70;99.90;;;;;;6274809;22;20160;-86
2022/10/28 08:15:04;;;;;;;13.13;5.80;;;17.90;99.90;;;;;;6274835;22;20393;-87
2022/10/28 08:17:30;;;;;;;11.07;5.17;;;;;;;;;;6276231;22;20188;-86
2022/10/28 08:19:56;;;;;;;10.17;6.40;;;17.70;99.90;;;;;;6273360;22;20733;-88
2022/10/28 08:22:22;;;;;;;12.50;4.93;;;17.50;99.90;;;;;;6272508;22;20374;-87
2022/10/28 08:24:47;;;;;;;12.67;4.70;;;17.20;99.90;;;;;;6274851;22;20568;-88
2022/10/28 08:27:13;;;;;;;16.67;5.23;;;;;;;;;;6274112;22;20409;-88
2022/10/28 08:29:39;;;;;;;9.63;5.30;;;;;;;;;;6274154;22;20255;-86
2022/10/28 08:32:08;;;;;;;10.73;6.70;;;16.70;99.90;;;;;;6275213;22;20722;-87
2022/10/28 08:34:34;;;;;;;12.40;5.40;;;16.50;99.90;;;;;;6276034;22;20383;-85
2022/10/28 08:36:59;;;;;;;12.13;5.30;;;16.40;99.90;;;;;;6275892;22;20872;-88
2022/10/28 08:39:25;;;;;;;10.30;5.13;;;;;;;;;;6276270;22;20229;-87
2022/10/28 08:41:57;;;;;;;8.10;4.87;;;16.50;99.90;;;;;;6275287;22;20234;-86
2022/10/28 08:44:29;;;;;;;8.73;4.63;;;16.40;99.90;;;;;;6275639;22;20409;-87
2022/10/28 08:47:06;;;;;;;10.60;4.97;;;16.60;99.90;;;;;;6278362;22;20446;-85
2022/10/28 08:49:34;;;;;;;18.07;4.33;;;16.60;99.90;;;;;;6277125;22;20436;-88
2022/10/28 08:52:23;;;;;;;11.67;5.40;;;16.70;99.90;;;;;;6278293;22;20843;-87
2022/10/28 08:55:15;;;;;;;7.50;4.90;;;16.20;99.90;;;;;;6266040;22;20386;-87
2022/10/28 08:58:18;;;;;;;13.50;5.80;;;16.20;99.90;;;;;;6247007;22;20433;-86
2022/10/28 09:00:49;;;;;;;11.90;4.00;;;16.10;99.90;;;;;;6267604;22;20849;-85
2022/10/28 09:03:21;;;;;;;13.20;5.60;;;16.70;99.90;;;;;;6273385;22;20378;-85
2022/10/28 09:05:49;;;;;;;15.83;5.43;;;17.10;99.90;;;;;;6273592;22;20453;-88
2022/10/28 09:08:27;;;;;;;12.33;5.47;;;17.10;99.90;;;;;;6273640;22;20917;-86
2022/10/28 09:10:53;;;;;;;9.17;4.70;;;17.10;99.90;;;;;;6278192;22;20430;-85
2022/10/28 09:13:25;;;;;;;9.37;5.53;;;16.80;99.90;;;;;;6276620;22;20849;-84
2022/10/28 09:16:18;;;;;;;8.60;4.37;;;16.60;99.90;;;;;;6277443;22;20132;-87
2022/10/28 09:18:53;;;;;;;11.77;4.63;;;16.60;99.90;;;;;;6278620;22;20912;-85
2022/10/28 09:21:30;;;;;;;13.10;4.23;;;16.70;99.90;;;;;;6273722;22;20476;-87
2022/10/28 09:23:59;;;;;;;16.90;4.63;;;17.00;99.90;;;;;;6275011;22;20390;-86
2022/10/28 09:26:34;;;;;;;8.43;3.80;;;17.80;99.90;;;;;;6273109;22;20904;-87
2022/10/28 09:29:12;;;;;;;10.73;4.30;;;17.80;99.90;;;;;;6273713;22;20402;-87
2022/10/28 09:31:39;;;;;;;10.57;4.10;;;;;;;;;;6273816;22;20371;-87
2022/10/28 09:34:35;;;;;;;8.17;3.03;;;19.50;99.90;;;;;;6275769;22;20383;-86
2022/10/28 09:37:14;;;;;;;13.90;4.63;;;19.60;99.90;;;;;;6274150;22;20856;-88
2022/10/28 09:39:49;;;;;;;16.57;3.80;;;19.60;99.90;;;;;;6274217;22;20921;-87
2022/10/28 09:42:27;;;;;;;11.93;4.90;;;20.30;99.90;;;;;;6274865;22;20711;-87
2022/10/28 09:44:57;;;;;;;14.47;4.13;;;21.10;99.90;;;;;;6277389;22;20359;-87
2022/10/28 09:47:29;;;;;;;10.83;3.87;;;21.20;99.90;;;;;;6276342;22;20404;-87
2022/10/28 09:49:59;;;;;;;9.10;3.20;;;21.20;99.90;;;;;;6274748;22;20406;-87
2022/10/28 09:52:34;;;;;;;24.20;4.90;;;21.00;99.90;;;;;;6274198;22;20374;-86
2022/10/28 09:55:14;;;;;;;11.00;3.40;;;21.40;99.90;;;;;;6273766;22;20864;-87
2022/10/28 09:57:40;;;;;;;7.47;2.97;;;;;;;;;;6275552;22;20433;-87
2022/10/28 10:00:06;;;;;;;12.23;3.37;;;21.50;99.90;;;;;;6276460;22;20382;-87
2022/10/28 10:02:34;;;;;;;8.13;3.43;;;21.20;99.90;;;;;;6273340;22;20410;-86
2022/10/28 10:05:01;;;;;;;10.50;6.03;;;20.40;99.90;;;;;;6276232;22;20393;-86
2022/10/28 10:07:42;;;;;;;7.30;4.60;;;20.40;99.90;;;;;;6273516;22;20456;-86
2022/10/28 10:10:22;;;;;;;12.20;4.40;;;20.50;99.90;;;;;;6274849;22;20394;-88
2022/10/28 10:12:52;;;;;;;11.20;5.23;;;20.20;99.90;;;;;;6277102;22;20455;-87
2022/10/28 10:15:26;;;;;;;11.43;3.40;;;20.50;99.90;;;;;;6274119;22;20382;-88
2022/10/28 10:17:54;;;;;;;10.73;4.97;;;20.40;99.90;;;;;;6273083;22;20433;-87
2022/10/28 10:20:20;;;;;;;13.77;4.70;;;20.30;99.90;;;;;;6273693;22;20387;-88
2022/10/28 10:22:47;;;;;;;11.07;3.97;;;20.40;99.90;;;;;;6275829;22;20397;-88
2022/10/28 10:25:16;;;;;;;8.50;2.40;;;19.70;99.90;;;;;;6275413;22;20454;-87
2022/10/28 10:27:48;;;;;;;10.90;2.90;;;19.90;99.90;;;;;;6276194;22;20894;-87
2022/10/28 10:30:17;;;;;;;13.13;2.40;;;19.80;99.90;;;;;;6273088;22;20401;-87
2022/10/28 10:32:46;;;;;;;7.83;3.40;;;19.30;99.90;;;;;;6277530;22;20521;-86
2022/10/28 10:35:12;;;;;;;10.53;4.17;;;;;;;;;;6278795;22;20374;-85
2022/10/28 10:37:42;;;;;;;9.73;4.07;;;19.90;99.90;;;;;;6281014;22;20449;-85
2022/10/28 10:40:25;;;;;;;8.30;3.17;;;20.90;99.90;;;;;;6280269;22;20358;-85
2022/10/28 10:42:51;;;;;;;10.00;4.10;;;;;;;;;;6275087;22;20375;-87
2022/10/28 10:45:17;;;;;;;16.17;4.53;;;;;;;;;;6214631;23;20388;-87
2022/10/28 10:47:43;;;;;;;7.10;3.50;;;;;;;;;;6212137;23;20955;-87
2022/10/28 10:50:23;;;;;;;16.23;4.47;;;21.20;99.90;;;;;;6238548;23;20391;-87
2022/10/28 10:52:51;;;;;;;11.20;4.40;;;20.60;99.90;;;;;;6236595;22;20501;-86
2022/10/28 10:55:51;;;;;;;9.67;4.00;;;20.30;99.90;;;;;;6235867;23;20379;-87
2022/10/28 10:58:20;;;;;;;12.63;3.70;;;20.10;99.90;;;;;;6237855;22;20445;-87
2022/10/28 11:00:49;;;;;;;10.97;2.80;;;19.70;99.90;;;;;;6239008;23;20379;-87
2022/10/28 11:03:24;;;;;;;9.97;3.17;;;19.60;99.90;;;;;;6238483;22;20753;-87
2022/10/28 11:05:54;;;;;;;7.50;3.03;;;19.70;99.90;;;;;;6240469;23;20375;-88
2022/10/28 11:08:30;;;;;;;9.70;4.27;;;19.90;99.90;;;;;;6241990;23;20371;-87
2022/10/28 11:11:19;;;;;;;8.07;4.17;;;19.90;99.90;;;;;;6240010;23;20494;-84
2022/10/28 11:13:46;;;;;;;17.80;3.97;;;19.80;99.90;;;;;;6241058;22;20935;-87
2022/10/28 11:16:18;;;;;;;9.90;3.47;;;19.70;99.90;;;;;;6240353;23;20390;-86
2022/10/28 11:18:46;;;;;;;8.63;4.00;;;20.00;99.90;;;;;;6241331;23;20383;-87
2022/10/28 11:21:31;;;;;;;7.63;3.50;;;20.20;99.90;;;;;;6242292;23;20435;-87
2022/10/28 11:24:13;;;;;;;12.73;3.27;;;20.50;99.90;;;;;;6241742;22;20399;-87
2022/10/28 11:27:03;;;;;;;9.17;3.50;;;20.90;99.90;;;;;;6242378;23;20398;-84
2022/10/28 11:29:29;;;;;;;12.00;3.30;;;;;;;;;;6241347;23;20364;-87
2022/10/28 11:32:27;;;;;;;11.23;3.53;;;21.20;99.90;;;;;;6240834;23;20433;-87
2022/10/28 11:35:18;;;;;;;7.57;3.53;;;21.10;99.90;;;;;;6242374;22;20391;-87
2022/10/28 11:37:55;;;;;;;6.57;3.53;;;20.90;99.90;;;;;;6241583;23;20786;-86
2022/10/28 11:40:48;;;;;;;11.10;4.10;;;20.80;99.90;;;;;;6241812;23;20391;-87
2022/10/28 11:43:33;;;;;;;12.40;4.57;;;21.30;99.90;;;;;;6248469;22;20918;-83
2022/10/28 11:46:09;;;;;;;6.57;3.10;;;21.50;99.90;;;;;;6271919;22;20863;-88
2022/10/28 11:48:48;;;;;;;5.43;2.90;;;22.10;99.90;;;;;;6276454;22;20393;-87
2022/10/28 11:51:17;;;;;;;9.87;3.60;;;22.10;99.90;;;;;;6274226;22;20378;-87
2022/10/28 11:53:57;;;;;;;9.77;3.60;;;22.20;99.90;;;;;;6276891;22;20387;-87
2022/10/28 11:56:40;;;;;;;12.97;3.60;;;22.30;99.90;;;;;;6275805;22;20417;-88
2022/10/28 11:59:25;;;;;;;12.50;3.90;;;22.60;99.90;;;;;;6275016;22;20386;-87
2022/10/28 12:02:26;;;;;;;7.67;3.43;;;23.10;99.90;;;;;;6275850;22;20379;-86
2022/10/28 12:04:52;;;;;;;6.70;3.20;;;;;;;;;;6277746;22;20383;-86
2022/10/28 12:07:49;;;;;;;11.77;3.80;;;23.40;99.90;;;;;;6279398;22;20537;-86
2022/10/28 12:10:34;;;;;;;13.23;4.30;;;23.80;99.90;;;;;;6273838;22;20944;-88
2022/10/28 12:13:02;;;;;;;7.90;3.63;;;24.00;99.90;;;;;;6276430;22;20391;-88
2022/10/28 12:15:46;;;;;;;10.73;3.30;;;24.20;99.90;;;;;;6275887;22;20448;-88
2022/10/28 12:18:34;;;;;;;14.00;3.27;;;24.60;99.90;;;;;;6274083;22;20416;-89
2022/10/28 12:21:21;;;;;;;6.73;3.10;;;24.50;99.90;;;;;;6275562;22;20377;-87
2022/10/28 12:23:48;;;;;;;7.03;2.30;;;25.10;99.90;;;;;;6273532;22;20402;-87
2022/10/28 12:26:17;;;;;;;9.33;4.30;;;25.20;99.90;;;;;;6273262;22;20375;-87
2022/10/28 12:28:56;;;;;;;8.20;3.23;;;25.00;99.90;;;;;;6272558;22;20399;-86
2022/10/28 12:31:26;;;;;;;8.57;2.63;;;25.20;99.90;;;;;;6274665;22;20397;-87
2022/10/28 12:33:55;;;;;;;6.80;2.90;;;25.20;99.90;;;;;;6275327;22;20859;-86
2022/10/28 12:36:40;;;;;;;6.87;2.30;;;25.20;99.90;;;;;;6274938;22;20359;-87
2022/10/28 12:39:17;;;;;;;6.07;2.50;;;24.60;99.90;;;;;;6273641;22;20381;-85
2022/10/28 12:41:49;;;;;;;5.57;2.67;;;24.40;99.90;;;;;;6276749;22;20364;-87
2022/10/28 12:44:23;;;;;;;10.63;3.13;;;24.50;99.90;;;;;;6273481;22;20416;-89
2022/10/28 12:47:12;;;;;;;8.77;2.60;;;24.30;99.90;;;;;;6275041;22;20433;-89
2022/10/28 12:49:50;;;;;;;15.60;3.10;;;24.40;99.90;;;;;;6274029;22;20381;-87
2022/10/28 12:52:21;;;;;;;7.80;3.00;;;24.80;99.90;;;;;;6272400;22;20998;-88
2022/10/28 12:55:14;;;;;;;6.90;2.83;;;24.60;99.90;;;;;;6273609;22;20394;-88
2022/10/28 12:57:43;;;;;;;10.30;3.00;;;24.60;99.90;;;;;;6273314;22;20450;-87
2022/10/28 13:00:12;;;;;;;19.70;3.87;;;24.50;99.90;;;;;;6273791;22;20374;-88
2022/10/28 13:02:44;;;;;;;10.53;3.57;;;24.60;99.90;;;;;;6272838;22;20451;-87
2022/10/28 13:05:20;;;;;;;12.03;3.77;;;24.60;99.90;;;;;;6272031;22;20356;-87
2022/10/28 13:08:17;;;;;;;17.67;3.00;;;24.70;99.90;;;;;;6270929;22;20384;-87
2022/10/28 13:11:16;;;;;;;10.00;3.70;;;24.30;99.90;;;;;;6270993;22;20387;-88
2022/10/28 13:13:51;;;;;;;5.30;3.60;;;24.10;99.90;;;;;;6273670;22;20412;-87
2022/10/28 13:16:17;;;;;;;16.70;3.17;;;;;;;;;;6272396;22;20382;-87
2022/10/28 13:19:19;;;;;;;26.37;4.23;;;23.90;99.90;;;;;;6271443;22;20379;-85
2022/10/28 13:22:10;;;;;;;9.83;3.90;;;24.10;99.90;;;;;;6270675;22;20717;-88
2022/10/28 13:24:57;;;;;;;11.40;3.30;;;23.60;99.90;;;;;;6273368;22;20388;-88
2022/10/28 13:27:23;;;;;;;17.30;3.07;;;23.20;99.90;;;;;;6271792;22;20379;-88
2022/10/28 13:29:53;;;;;;;7.40;3.47;;;22.90;99.90;;;;;;6272693;22;20383;-86
2022/10/28 13:32:39;;;;;;;8.30;3.63;;;22.80;99.90;;;;;;6273744;22;20374;-87